createdAt,value
2018-04-22T00:02:10.989Z,14.27
2018-04-22T00:04:38.304Z,14.20
2018-04-22T00:07:04.810Z,14.43
2018-04-22T00:09:31.020Z,12.70
2018-04-22T00:11:59.033Z,15.37
2018-04-22T00:14:25.328Z,16.80
2018-04-22T00:16:52.549Z,15.20
2018-04-22T00:19:19.438Z,15.93
2018-04-22T00:21:46.303Z,15.53
2018-04-22T00:24:12.833Z,14.77
2018-04-22T00:26:39.670Z,16.77
2018-04-22T00:29:06.310Z,17.10
2018-04-22T00:31:33.830Z,16.80
2018-04-22T00:34:01.790Z,15.03
2018-04-22T00:36:27.983Z,15.03
2018-04-22T00:38:54.204Z,14.90
2018-04-22T00:41:21.073Z,15.40
2018-04-22T00:43:47.911Z,14.90
2018-04-22T00:46:15.404Z,16.30
2018-04-22T00:48:42.341Z,15.40
2018-04-22T00:51:10.332Z,15.40
2018-04-22T00:53:49.954Z,18.50
2018-04-22T00:56:18.171Z,18.23
2018-04-22T00:58:45.466Z,17.07
2018-04-22T01:01:12.209Z,17.63
2018-04-22T01:03:38.433Z,18.63
2018-04-22T01:06:05.847Z,18.73
2018-04-22T01:08:33.011Z,18.17
2018-04-22T01:11:00.046Z,19.30
2018-04-22T01:13:28.647Z,18.33
2018-04-22T01:15:55.634Z,21.27
2018-04-22T01:18:23.542Z,21.40
2018-04-22T01:20:49.750Z,19.50
2018-04-22T01:23:17.132Z,18.80
2018-04-22T01:25:43.448Z,19.53
2018-04-22T01:28:09.942Z,19.50
2018-04-22T01:30:37.494Z,18.47
2018-04-22T01:33:03.795Z,18.60
2018-04-22T01:35:30.878Z,16.90
2018-04-22T01:37:58.315Z,17.90
2018-04-22T01:40:25.310Z,18.10
2018-04-22T01:42:52.812Z,18.30
2018-04-22T01:45:19.127Z,18.17
2018-04-22T01:47:45.870Z,17.57
2018-04-22T01:50:12.091Z,16.10
2018-04-22T01:52:38.298Z,16.33
2018-04-22T01:55:05.104Z,16.57
2018-04-22T01:57:32.591Z,18.53
2018-04-22T01:59:59.332Z,17.53
2018-04-22T02:02:26.144Z,18.57
2018-04-22T02:04:52.824Z,18.17
2018-04-22T02:07:19.010Z,16.30
2018-04-22T02:09:46.677Z,16.50
2018-04-22T02:12:14.420Z,15.57
2018-04-22T02:14:41.217Z,16.13
2018-04-22T02:17:08.127Z,16.40
2018-04-22T02:19:35.290Z,16.40
2018-04-22T02:22:03.149Z,18.00
2018-04-22T02:24:30.120Z,17.50
2018-04-22T02:26:56.319Z,17.10
2018-04-22T02:29:24.240Z,14.80
2018-04-22T02:31:50.982Z,16.90
2018-04-22T02:34:17.984Z,14.87
2018-04-22T02:36:45.643Z,16.37
2018-04-22T02:39:12.383Z,16.93
2018-04-22T02:41:39.149Z,14.23
2018-04-22T02:44:05.920Z,16.40
2018-04-22T02:46:32.317Z,15.33
2018-04-22T02:48:59.898Z,15.27
2018-04-22T02:51:26.126Z,14.30
2018-04-22T02:53:53.309Z,14.87
2018-04-22T02:56:21.302Z,15.23
2018-04-22T02:58:47.655Z,15.37
2018-04-22T03:01:14.829Z,12.63
2018-04-22T03:03:42.083Z,14.70
2018-04-22T03:06:09.161Z,14.37
2018-04-22T03:08:36.064Z,13.63
2018-04-22T03:11:04.081Z,13.30
2018-04-22T03:13:31.580Z,14.33
2018-04-22T03:15:58.323Z,14.70
2018-04-22T03:18:24.586Z,13.90
2018-04-22T03:20:52.176Z,13.50
2018-04-22T03:23:19.093Z,14.00
2018-04-22T03:25:45.505Z,14.20
2018-04-22T03:28:12.764Z,14.70
2018-04-22T03:30:40.245Z,13.80
2018-04-22T03:33:07.178Z,15.77
2018-04-22T03:35:34.004Z,15.13
2018-04-22T03:38:00.221Z,15.27
2018-04-22T03:40:27.741Z,13.67
2018-04-22T03:42:53.970Z,14.83
2018-04-22T03:45:21.400Z,13.53
2018-04-22T03:47:49.343Z,14.27
2018-04-22T03:50:16.163Z,14.73
2018-04-22T03:52:43.357Z,14.30
2018-04-22T03:55:11.164Z,14.23
2018-04-22T03:57:37.603Z,14.80
2018-04-22T04:00:04.862Z,14.37
2018-04-22T04:02:31.673Z,16.70
2018-04-22T04:04:58.131Z,14.73
2018-04-22T04:07:25.333Z,15.00
2018-04-22T04:09:51.561Z,14.60
2018-04-22T04:12:19.702Z,14.90
2018-04-22T04:14:46.706Z,18.00
2018-04-22T04:17:13.031Z,19.50
2018-04-22T04:19:52.369Z,18.30
2018-04-22T04:22:31.202Z,18.00
2018-04-22T04:28:00.774Z,14.93
2018-04-22T04:30:27.565Z,14.40
2018-04-22T04:32:53.790Z,14.77
2018-04-22T04:35:19.994Z,14.70
2018-04-22T04:37:46.920Z,15.30
2018-04-22T04:40:13.659Z,15.03
2018-04-22T04:42:40.162Z,15.68
2018-04-22T04:45:07.412Z,16.37
2018-04-22T04:47:33.612Z,14.20
2018-04-22T04:50:00.477Z,14.47
2018-04-22T04:52:26.672Z,13.97
2018-04-22T04:54:54.324Z,14.67
2018-04-22T04:57:21.945Z,15.80
2018-04-22T04:59:49.948Z,14.23
2018-04-22T05:02:16.918Z,14.50
2018-04-22T05:04:43.132Z,14.20
2018-04-22T05:07:10.657Z,14.73
2018-04-22T05:09:38.008Z,14.67
2018-04-22T05:12:05.030Z,14.10
2018-04-22T05:14:31.338Z,14.13
2018-04-22T05:16:58.877Z,14.43
2018-04-22T05:19:25.687Z,14.30
2018-04-22T05:21:52.480Z,14.10
2018-04-22T05:24:18.705Z,14.10
2018-04-22T05:26:46.079Z,15.00
2018-04-22T05:29:13.637Z,14.50
2018-04-22T05:31:40.182Z,13.77
2018-04-22T05:34:07.212Z,13.70
2018-04-22T05:36:34.126Z,14.00
2018-04-22T05:39:00.637Z,15.70
2018-04-22T05:41:27.421Z,14.60
2018-04-22T05:43:54.188Z,13.70
2018-04-22T05:46:20.932Z,13.13
2018-04-22T05:48:47.230Z,13.17
2018-04-22T05:51:14.816Z,13.73
2018-04-22T05:53:41.716Z,13.93
2018-04-22T05:56:10.306Z,15.43
2018-04-22T05:58:37.264Z,15.00
2018-04-22T06:01:04.111Z,14.77
2018-04-22T06:03:32.823Z,15.00
2018-04-22T06:06:02.234Z,16.17
2018-04-22T06:08:28.753Z,16.57
2018-04-22T06:10:56.807Z,16.03
2018-04-22T06:13:23.389Z,17.27
2018-04-22T06:15:50.391Z,18.10
2018-04-22T06:18:16.719Z,16.00
2018-04-22T06:20:43.458Z,16.57
2018-04-22T06:23:10.641Z,16.33
2018-04-22T06:25:37.064Z,17.37
2018-04-22T06:28:03.381Z,16.73
2018-04-22T06:30:29.942Z,17.80
2018-04-22T06:32:56.925Z,18.50
2018-04-22T06:35:24.887Z,17.50
2018-04-22T06:37:52.022Z,18.30
2018-04-22T06:40:18.288Z,18.30
2018-04-22T06:42:44.866Z,18.63
2018-04-22T06:45:11.503Z,17.80
2018-04-22T06:47:38.060Z,19.97
2018-04-22T06:50:11.408Z,20.03
2018-04-22T06:52:37.825Z,20.30
2018-04-22T06:55:04.057Z,18.70
2018-04-22T06:57:30.482Z,20.87
2018-04-22T06:59:57.691Z,19.70
2018-04-22T07:02:25.503Z,20.10
2018-04-22T07:04:53.159Z,19.40
2018-04-22T07:07:22.303Z,19.33
2018-04-22T07:09:49.129Z,21.20
2018-04-22T07:12:15.389Z,19.43
2018-04-22T07:14:41.737Z,20.77
2018-04-22T07:17:08.675Z,20.17
2018-04-22T07:19:35.550Z,17.97
2018-04-22T07:22:02.099Z,20.30
2018-04-22T07:24:29.152Z,19.60
2018-04-22T07:26:56.279Z,19.13
2018-04-22T07:29:23.424Z,19.07
2018-04-22T07:31:50.192Z,18.83
2018-04-22T07:34:17.594Z,20.20
2018-04-22T07:36:44.534Z,18.13
2018-04-22T07:39:11.316Z,18.27
2018-04-22T07:41:37.509Z,17.53
2018-04-22T07:44:04.703Z,15.30
2018-04-22T07:46:32.496Z,17.27
2018-04-22T07:48:59.743Z,16.60
2018-04-22T07:51:26.483Z,17.30
2018-04-22T07:53:53.249Z,15.90
2018-04-22T07:56:19.750Z,18.57
2018-04-22T07:58:46.766Z,17.90
2018-04-22T08:01:13.293Z,16.70
2018-04-22T08:03:40.662Z,16.27
2018-04-22T08:06:08.092Z,17.00
2018-04-22T08:08:35.189Z,15.40
2018-04-22T08:11:06.447Z,14.43
2018-04-22T08:13:32.667Z,14.60
2018-04-22T08:16:00.228Z,15.63
2018-04-22T08:18:26.949Z,16.50
2018-04-22T08:20:53.693Z,16.90
2018-04-22T08:23:20.436Z,14.37
2018-04-22T08:25:46.627Z,15.50
2018-04-22T08:28:13.868Z,16.10
2018-04-22T08:30:41.382Z,16.93
2018-04-22T08:33:08.288Z,17.10
2018-04-22T08:35:35.642Z,16.67
2018-04-22T08:38:02.338Z,16.20
2018-04-22T08:40:29.612Z,18.67
2018-04-22T08:42:56.578Z,19.30
2018-04-22T08:45:23.844Z,17.87
2018-04-22T08:47:50.066Z,17.33
2018-04-22T08:50:17.177Z,18.10
2018-04-22T08:52:45.298Z,18.30
2018-04-22T08:55:12.083Z,17.90
2018-04-22T08:57:38.687Z,20.30
2018-04-22T09:00:05.742Z,18.67
2018-04-22T09:02:33.019Z,18.57
2018-04-22T09:04:59.997Z,18.70
2018-04-22T09:07:26.238Z,15.57
2018-04-22T09:09:52.969Z,19.80
2018-04-22T09:12:19.153Z,17.00
2018-04-22T09:14:46.335Z,17.07
2018-04-22T09:17:13.901Z,16.70
2018-04-22T09:19:41.368Z,14.67
2018-04-22T09:22:08.152Z,16.47
2018-04-22T09:24:34.367Z,16.30
2018-04-22T09:27:01.248Z,16.30
2018-04-22T09:29:29.289Z,16.90
2018-04-22T09:31:55.493Z,15.37
2018-04-22T09:34:21.861Z,16.27
2018-04-22T09:36:49.392Z,17.00
2018-04-22T09:39:15.606Z,18.27
2018-04-22T09:41:41.817Z,16.33
2018-04-22T09:44:08.570Z,17.83
2018-04-22T09:46:35.003Z,15.53
2018-04-22T09:49:02.019Z,16.93
2018-04-22T09:51:29.749Z,16.57
2018-04-22T09:53:56.513Z,17.50
2018-04-22T09:56:24.689Z,16.77
2018-04-22T09:58:52.237Z,16.13
2018-04-22T10:01:19.997Z,15.27
2018-04-22T10:03:48.561Z,17.50
2018-04-22T10:06:15.481Z,16.23
2018-04-22T10:08:42.223Z,14.60
2018-04-22T10:11:09.065Z,14.07
2018-04-22T10:13:35.485Z,13.13
2018-04-22T10:16:02.550Z,13.97
2018-04-22T10:18:28.749Z,14.40
2018-04-22T10:20:55.534Z,16.27
2018-04-22T10:23:21.742Z,15.90
2018-04-22T10:25:48.040Z,17.10
2018-04-22T10:28:14.790Z,14.00
2018-04-22T10:30:41.027Z,15.60
2018-04-22T10:33:08.676Z,14.23
2018-04-22T10:35:35.893Z,14.40
2018-04-22T10:38:02.170Z,13.80
2018-04-22T10:40:29.203Z,14.40
2018-04-22T10:42:56.930Z,14.97
2018-04-22T10:45:24.042Z,13.40
2018-04-22T10:47:50.980Z,14.60
2018-04-22T10:50:17.373Z,14.50
2018-04-22T10:52:44.944Z,13.80
2018-04-22T10:55:11.243Z,12.33
2018-04-22T10:57:37.852Z,13.60
2018-04-22T11:00:04.111Z,15.10
2018-04-22T11:02:30.510Z,12.70
2018-04-22T11:04:57.363Z,12.23
2018-04-22T11:07:24.206Z,11.97
2018-04-22T11:09:50.536Z,14.20
2018-04-22T11:12:17.410Z,13.40
2018-04-22T11:14:44.903Z,13.83
2018-04-22T11:17:11.690Z,13.97
2018-04-22T11:19:38.115Z,13.37
2018-04-22T11:22:07.026Z,12.43
2018-04-22T11:24:33.690Z,11.40
2018-04-22T11:27:00.829Z,10.97
2018-04-22T11:29:27.337Z,12.10
2018-04-22T11:31:54.752Z,12.30
2018-04-22T11:34:21.196Z,10.53
2018-04-22T11:36:48.243Z,11.63
2018-04-22T11:39:16.012Z,11.90
2018-04-22T11:41:43.799Z,11.80
2018-04-22T11:44:10.117Z,12.90
2018-04-22T11:46:36.388Z,12.00
2018-04-22T11:49:03.380Z,11.67
2018-04-22T11:51:29.638Z,10.60
2018-04-22T11:53:56.214Z,9.70
2018-04-22T11:56:23.733Z,11.53
2018-04-22T11:58:49.944Z,9.67
2018-04-22T12:01:17.048Z,8.90
2018-04-22T12:03:43.260Z,9.60
2018-04-22T12:06:10.842Z,10.00
2018-04-22T12:08:37.227Z,9.30
2018-04-22T12:11:03.987Z,9.73
2018-04-22T12:13:31.531Z,9.23
2018-04-22T12:15:57.733Z,9.77
2018-04-22T12:18:24.068Z,9.30
2018-04-22T12:20:50.766Z,10.50
2018-04-22T12:23:19.001Z,9.93
2018-04-22T12:25:45.746Z,9.93
2018-04-22T12:28:12.964Z,8.63
2018-04-22T12:30:40.539Z,8.63
2018-04-22T12:33:07.530Z,8.10
2018-04-22T12:35:33.780Z,8.00
2018-04-22T12:38:01.526Z,7.73
2018-04-22T12:40:27.892Z,7.73
2018-04-22T12:42:54.672Z,7.20
2018-04-22T12:45:20.945Z,8.40
2018-04-22T12:47:48.688Z,8.50
2018-04-22T12:50:15.706Z,8.13
2018-04-22T12:52:42.065Z,9.00
2018-04-22T12:55:08.517Z,11.03
2018-04-22T12:57:36.178Z,9.10
2018-04-22T13:00:02.403Z,9.60
2018-04-22T13:02:29.289Z,8.57
2018-04-22T13:04:55.518Z,9.63
2018-04-22T13:07:22.531Z,10.20
2018-04-22T13:09:49.316Z,9.30
2018-04-22T13:12:16.033Z,8.03
2018-04-22T13:14:42.999Z,9.40
2018-04-22T13:17:10.100Z,9.33
2018-04-22T13:19:43.641Z,9.60
2018-04-22T13:22:09.911Z,8.90
2018-04-22T13:24:36.819Z,9.20
2018-04-22T13:27:03.257Z,9.20
2018-04-22T13:29:30.217Z,8.20
2018-04-22T13:31:58.159Z,8.10
2018-04-22T13:34:24.949Z,8.30
2018-04-22T13:36:51.136Z,8.50
2018-04-22T13:39:17.809Z,8.00
2018-04-22T13:41:44.824Z,9.17
2018-04-22T13:44:11.783Z,8.53
2018-04-22T13:46:39.686Z,8.37
2018-04-22T13:49:05.889Z,8.87
2018-04-22T13:51:32.142Z,8.43
2018-04-22T13:53:58.339Z,8.43
2018-04-22T13:56:32.158Z,8.43
2018-04-22T13:58:59.239Z,8.20
2018-04-22T14:01:25.746Z,8.80
2018-04-22T14:03:52.794Z,8.43
2018-04-22T14:06:19.637Z,8.67
2018-04-22T14:08:45.955Z,9.30
2018-04-22T14:11:12.737Z,9.90
2018-04-22T14:13:39.289Z,8.60
2018-04-22T14:16:06.303Z,8.00
2018-04-22T14:18:33.144Z,8.70
2018-04-22T14:21:00.004Z,8.67
2018-04-22T14:23:26.216Z,9.67
2018-04-22T14:25:52.598Z,10.00
2018-04-22T14:28:19.720Z,9.13
2018-04-22T14:30:46.554Z,10.50
2018-04-22T14:33:12.797Z,9.00
2018-04-22T14:35:39.540Z,8.47
2018-04-22T14:38:05.729Z,9.10
2018-04-22T14:40:33.039Z,8.50
2018-04-22T14:43:00.475Z,8.70
2018-04-22T14:45:39.941Z,8.97
2018-04-22T14:48:07.652Z,8.60
2018-04-22T14:50:34.401Z,9.80
2018-04-22T14:53:00.571Z,9.27
2018-04-22T14:55:27.059Z,9.40
2018-04-22T14:57:53.849Z,9.20
2018-04-22T15:00:20.970Z,8.43
2018-04-22T15:02:48.663Z,8.73
2018-04-22T15:05:15.042Z,9.37
2018-04-22T15:07:41.824Z,9.67
2018-04-22T15:10:09.842Z,8.87
2018-04-22T15:12:37.111Z,9.40
2018-04-22T15:15:04.878Z,8.80
2018-04-22T15:17:31.084Z,8.90
2018-04-22T15:19:57.934Z,9.10
2018-04-22T15:22:24.851Z,9.27
2018-04-22T15:24:51.189Z,8.57
2018-04-22T15:27:17.387Z,9.33
2018-04-22T15:29:44.340Z,9.57
2018-04-22T15:32:11.304Z,8.27
2018-04-22T15:34:38.123Z,8.87
2018-04-22T15:37:04.915Z,8.90
2018-04-22T15:39:31.116Z,10.67
2018-04-22T15:41:58.222Z,10.63
2018-04-22T15:44:25.552Z,9.80
2018-04-22T15:46:52.549Z,9.50
2018-04-22T15:49:18.757Z,8.30
2018-04-22T15:51:46.308Z,8.50
2018-04-22T15:54:13.304Z,8.57
2018-04-22T15:56:39.528Z,9.40
2018-04-22T15:59:06.416Z,9.53
2018-04-22T16:01:33.244Z,9.00
2018-04-22T16:03:59.731Z,8.73
2018-04-22T16:06:26.052Z,9.40
2018-04-22T16:08:52.792Z,8.70
2018-04-22T16:11:19.533Z,7.33
2018-04-22T16:13:45.748Z,8.73
2018-04-22T16:16:13.696Z,8.00
2018-04-22T16:18:41.039Z,9.57
2018-04-22T16:21:07.255Z,9.33
2018-04-22T16:23:34.123Z,7.90
2018-04-22T16:26:01.112Z,9.03
2018-04-22T16:28:27.936Z,9.20
2018-04-22T16:30:55.179Z,8.70
2018-04-22T16:33:21.885Z,9.27
2018-04-22T16:35:48.840Z,9.13
2018-04-22T16:38:15.210Z,11.20
2018-04-22T16:40:42.347Z,11.30
2018-04-22T16:43:08.547Z,10.70
2018-04-22T16:45:35.414Z,10.57
2018-04-22T16:48:01.882Z,10.20
2018-04-22T16:50:28.983Z,9.27
2018-04-22T16:52:56.415Z,8.97
2018-04-22T16:55:22.911Z,9.90
2018-04-22T16:57:49.141Z,10.30
2018-04-22T17:00:15.540Z,10.03
2018-04-22T17:02:42.517Z,8.93
2018-04-22T17:05:10.045Z,8.90
2018-04-22T17:07:37.659Z,9.57
2018-04-22T17:10:03.863Z,10.37
2018-04-22T17:12:30.755Z,10.63
2018-04-22T17:14:56.968Z,10.70
2018-04-22T17:17:23.198Z,10.50
2018-04-22T17:19:49.984Z,11.17
2018-04-22T17:22:16.191Z,10.50
2018-04-22T17:24:43.364Z,9.87
2018-04-22T17:27:10.381Z,10.33
2018-04-22T17:29:36.693Z,10.37
2018-04-22T17:32:03.499Z,10.20
2018-04-22T17:34:29.705Z,11.23
2018-04-22T17:36:56.608Z,11.50
2018-04-22T17:39:23.829Z,11.07
2018-04-22T17:41:50.115Z,11.00
2018-04-22T17:44:17.064Z,10.63
2018-04-22T17:46:44.027Z,9.97
2018-04-22T17:49:10.293Z,10.03
2018-04-22T17:51:37.218Z,10.63
2018-04-22T17:54:03.936Z,12.20
2018-04-22T17:56:30.416Z,12.20
2018-04-22T17:58:57.428Z,11.27
2018-04-22T18:01:24.411Z,11.97
2018-04-22T18:03:51.729Z,10.73
2018-04-22T18:06:19.104Z,12.00
2018-04-22T18:08:46.122Z,10.73
2018-04-22T18:11:12.345Z,11.60
2018-04-22T18:13:39.174Z,10.63
2018-04-22T18:16:06.638Z,13.37
2018-04-22T18:18:33.011Z,12.63
2018-04-22T18:21:00.629Z,11.90
2018-04-22T18:23:27.419Z,11.03
2018-04-22T18:25:53.808Z,11.40
2018-04-22T18:28:21.361Z,10.50
2018-04-22T18:30:48.693Z,11.40
2018-04-22T18:33:16.641Z,10.80
2018-04-22T18:35:44.950Z,11.70
2018-04-22T18:38:12.377Z,11.83
2018-04-22T18:40:39.270Z,14.27
2018-04-22T18:43:05.839Z,13.10
2018-04-22T18:45:32.049Z,11.90
2018-04-22T18:47:58.979Z,10.87
2018-04-22T18:50:25.487Z,11.77
2018-04-22T18:52:52.971Z,11.27
2018-04-22T18:55:19.234Z,12.63
2018-04-22T18:57:45.699Z,12.20
2018-04-22T19:00:13.515Z,11.63
2018-04-22T19:02:40.725Z,11.60
2018-04-22T19:05:07.808Z,10.47
2018-04-22T19:07:34.154Z,11.23
2018-04-22T19:10:01.517Z,12.20
2018-04-22T19:12:28.409Z,11.80
2018-04-22T19:14:55.318Z,10.80
2018-04-22T19:17:22.323Z,10.20
2018-04-22T19:19:48.636Z,11.27
2018-04-22T19:22:16.622Z,10.80
2018-04-22T19:24:43.550Z,11.60
2018-04-22T19:27:10.428Z,10.10
2018-04-22T19:29:38.448Z,10.40
2018-04-22T19:32:06.220Z,10.70
2018-04-22T19:34:33.380Z,11.57
2018-04-22T19:36:59.740Z,11.03
2018-04-22T19:39:26.143Z,10.77
2018-04-22T19:41:53.946Z,10.30
2018-04-22T19:44:21.682Z,10.60
2018-04-22T19:46:49.298Z,11.73
2018-04-22T19:49:16.814Z,12.20
2018-04-22T19:51:43.630Z,11.47
2018-04-22T19:54:10.692Z,13.10
2018-04-22T19:56:37.676Z,12.70
2018-04-22T19:59:06.412Z,12.27
2018-04-22T20:01:33.035Z,12.40
2018-04-22T20:04:01.141Z,12.47
2018-04-22T20:06:27.994Z,13.07
2018-04-22T20:08:54.846Z,13.70
2018-04-22T20:11:21.418Z,13.27
2018-04-22T20:13:49.442Z,14.90
2018-04-22T20:16:15.767Z,12.10
2018-04-22T20:18:42.696Z,12.60
2018-04-22T20:21:09.961Z,15.43
2018-04-22T20:23:36.957Z,13.00
2018-04-22T20:26:04.420Z,12.60
2018-04-22T20:28:30.953Z,12.30
2018-04-22T20:30:57.307Z,11.40
2018-04-22T20:33:24.480Z,14.60
2018-04-22T20:35:50.990Z,14.60
2018-04-22T20:38:17.181Z,15.70
2018-04-22T20:40:43.568Z,15.70
2018-04-22T20:43:10.591Z,17.57
2018-04-22T20:45:36.785Z,11.87
2018-04-22T20:48:03.115Z,15.47
2018-04-22T20:50:30.430Z,12.90
2018-04-22T20:52:58.023Z,13.87
2018-04-22T20:55:24.245Z,14.17
2018-04-22T20:57:51.802Z,13.07
2018-04-22T21:00:19.348Z,17.50
2018-04-22T21:02:45.813Z,16.23
2018-04-22T21:05:13.433Z,18.17
2018-04-22T21:07:40.665Z,18.00
2018-04-22T21:10:07.638Z,17.37
2018-04-22T21:12:34.437Z,20.07
2018-04-22T21:15:01.106Z,17.00
2018-04-22T21:17:28.097Z,16.57
2018-04-22T21:19:55.094Z,16.00
2018-04-22T21:22:21.613Z,16.23
2018-04-22T21:24:49.223Z,14.80
2018-04-22T21:27:15.608Z,13.63
2018-04-22T21:29:42.484Z,17.33
2018-04-22T21:32:08.713Z,15.13
2018-04-22T21:34:35.283Z,15.63
2018-04-22T21:37:02.253Z,15.77
2018-04-22T21:39:29.346Z,14.63
2018-04-22T21:41:57.047Z,16.20
2018-04-22T21:44:23.286Z,15.93
2018-04-22T21:46:50.056Z,15.60
2018-04-22T21:49:16.438Z,14.50
2018-04-22T21:51:44.620Z,15.37
2018-04-22T21:54:12.039Z,14.60
2018-04-22T21:56:38.265Z,13.60
2018-04-22T21:59:05.018Z,13.07
2018-04-22T22:01:31.272Z,13.30
2018-04-22T22:03:58.793Z,12.70
2018-04-22T22:06:25.421Z,12.77
2018-04-22T22:08:51.929Z,11.73
2018-04-22T22:11:18.448Z,12.40
2018-04-22T22:13:45.175Z,11.20
2018-04-22T22:16:12.132Z,12.20
2018-04-22T22:18:38.339Z,12.27
2018-04-22T22:21:05.622Z,12.33
2018-04-22T22:23:32.662Z,11.80
2018-04-22T22:25:58.887Z,12.90
2018-04-22T22:28:26.056Z,12.00
2018-04-22T22:30:52.756Z,13.27
2018-04-22T22:33:19.708Z,11.77
2018-04-22T22:35:48.257Z,11.53
2018-04-22T22:38:15.055Z,11.70
2018-04-22T22:40:41.653Z,11.07
2018-04-22T22:43:08.644Z,10.83
2018-04-22T22:45:35.397Z,11.00
2018-04-22T22:48:01.594Z,11.97
2018-04-22T22:50:28.013Z,10.97
2018-04-22T22:52:55.086Z,11.43
2018-04-22T22:55:21.709Z,11.03
2018-04-22T22:57:49.100Z,11.00
2018-04-22T23:00:17.127Z,11.00
2018-04-22T23:02:43.350Z,10.03
2018-04-22T23:05:09.575Z,10.50
2018-04-22T23:07:37.116Z,9.97
2018-04-22T23:10:03.342Z,10.77
2018-04-22T23:12:29.520Z,11.00
2018-04-22T23:14:56.560Z,10.50
2018-04-22T23:17:23.462Z,11.40
2018-04-22T23:19:50.210Z,9.73
2018-04-22T23:22:17.577Z,10.67
2018-04-22T23:24:45.113Z,11.70
2018-04-22T23:27:11.982Z,10.90
2018-04-22T23:29:38.202Z,10.20
2018-04-22T23:32:05.322Z,10.60
2018-04-22T23:34:32.952Z,10.60
2018-04-22T23:36:59.920Z,10.60
2018-04-22T23:39:26.134Z,9.80
2018-04-22T23:41:53.010Z,11.30
2018-04-22T23:44:20.271Z,11.10
2018-04-22T23:46:48.450Z,9.73
2018-04-22T23:49:15.445Z,11.10
2018-04-22T23:51:41.776Z,10.20
2018-04-22T23:54:08.093Z,10.83
2018-04-22T23:56:34.887Z,10.00
2018-04-22T23:59:03.281Z,10.10
